Time;durP1;ratioP1;P1;durP2;ratioP2;P2;SDS_P1;SDS_P2;PMS_P1;PMS_P2;Temp;Humidity;BMP_temperature;BMP_pressure;BME280_temperature;BME280_humidity;BME280_pressure;Samples;Min_cycle;Max_cycle;Signal;HPM_P1;HPM_P2
2022/01/15 00:02:24;;;;;;;0.20;0.10;;;7.50;99.90;;;;;;25580618;23;20222;-66
2022/01/15 00:12:37;;;;;;;0.20;0.10;;;7.30;99.90;;;;;;25579298;23;20205;-73
2022/01/15 00:22:40;;;;;;;0.20;0.10;;;7.30;99.90;;;;;;25578995;23;20162;-73
2022/01/15 00:32:46;;;;;;;0.20;0.13;;;7.70;99.90;;;;;;25578780;23;20194;-73
2022/01/15 00:42:49;;;;;;;0.20;0.10;;;8.00;99.90;;;;;;25579274;23;20209;-72
2022/01/15 00:52:55;;;;;;;0.20;0.10;;;7.90;99.90;;;;;;25580369;23;20190;-72
2022/01/15 01:02:58;;;;;;;0.20;0.00;;;8.00;99.90;;;;;;25576447;23;20209;-73
2022/01/15 01:23:34;;;;;;;0.20;0.10;;;7.10;99.90;;;;;;25549304;23;20182;-73
2022/01/15 01:33:43;;;;;;;0.20;0.10;;;7.10;99.90;;;;;;25580790;23;20197;-72
2022/01/15 01:43:52;;;;;;;0.20;0.10;;;6.90;99.90;;;;;;25587825;23;20249;-66
2022/01/15 01:53:59;;;;;;;0.20;0.10;;;7.00;99.90;;;;;;25587487;23;20195;-67
2022/01/15 02:04:03;;;;;;;0.20;0.00;;;6.50;99.90;;;;;;25578914;23;20895;-67
2022/01/15 02:14:08;;;;;;;0.20;0.10;;;5.90;99.90;;;;;;25585046;23;20239;-66
2022/01/15 02:24:14;;;;;;;0.20;0.00;;;5.80;99.90;;;;;;25589258;23;20262;-66
2022/01/15 02:34:17;;;;;;;0.20;0.10;;;5.50;99.90;;;;;;25587720;23;20174;-66
2022/01/15 02:44:23;;;;;;;0.20;0.10;;;5.50;99.90;;;;;;25588030;23;20170;-65
2022/01/15 02:54:26;;;;;;;0.20;0.10;;;5.40;99.90;;;;;;25586974;23;20672;-67
2022/01/15 03:04:32;;;;;;;0.20;0.10;;;5.00;99.90;;;;;;25583833;23;20666;-66
2022/01/15 03:14:36;;;;;;;0.20;0.10;;;4.90;99.90;;;;;;25587079;23;20220;-66
2022/01/15 03:24:42;;;;;;;0.20;0.10;;;4.50;99.90;;;;;;25586773;23;20507;-65
2022/01/15 03:34:46;;;;;;;0.20;0.00;;;4.70;99.90;;;;;;25584118;23;20597;-66
2022/01/15 03:44:51;;;;;;;0.20;0.10;;;4.10;99.90;;;;;;25585539;23;20313;-65
2022/01/15 03:54:55;;;;;;;0.20;0.10;;;4.30;99.90;;;;;;25583393;23;20637;-66
2022/01/15 04:05:00;;;;;;;0.20;0.10;;;3.80;99.90;;;;;;25583762;23;20214;-66
2022/01/15 04:15:04;;;;;;;0.20;0.10;;;3.90;99.90;;;;;;25583992;23;20257;-65
2022/01/15 04:25:10;;;;;;;0.20;0.10;;;3.80;99.90;;;;;;25585626;23;20194;-65
2022/01/15 04:35:14;;;;;;;0.20;0.10;;;3.80;99.90;;;;;;25582289;23;20181;-65
2022/01/15 04:45:19;;;;;;;0.20;0.10;;;3.30;99.90;;;;;;25584396;23;20543;-66
2022/01/15 04:55:23;;;;;;;0.20;0.10;;;3.30;99.90;;;;;;25583956;23;20562;-66
2022/01/15 05:05:29;;;;;;;0.20;0.10;;;3.40;99.90;;;;;;25579858;23;20292;-66
2022/01/15 05:15:33;;;;;;;0.20;0.10;;;3.20;99.90;;;;;;25583602;23;20170;-66
2022/01/15 05:25:38;;;;;;;0.20;0.03;;;2.90;99.90;;;;;;25582954;23;20194;-66
2022/01/15 05:35:42;;;;;;;0.20;0.00;;;2.80;99.90;;;;;;25583437;23;20178;-66
2022/01/15 05:45:47;;;;;;;0.20;0.10;;;3.00;99.90;;;;;;25580424;23;20189;-66
2022/01/15 05:55:51;;;;;;;0.20;0.10;;;2.90;99.90;;;;;;25581130;23;20233;-66
2022/01/15 06:05:56;;;;;;;0.20;0.10;;;3.00;99.90;;;;;;25580197;23;20211;-75
2022/01/15 06:16:00;;;;;;;0.20;0.10;;;3.10;99.90;;;;;;25586898;23;20259;-75
2022/01/15 06:26:05;;;;;;;0.20;0.10;;;3.00;99.90;;;;;;25589448;23;20283;-75
2022/01/15 06:36:09;;;;;;;0.20;0.00;;;3.20;99.90;;;;;;25588179;23;20173;-73
2022/01/15 06:46:15;;;;;;;0.20;0.10;;;2.90;99.90;;;;;;25585853;23;20515;-75
2022/01/15 06:56:19;;;;;;;0.20;0.10;;;2.90;99.90;;;;;;25585574;23;20166;-74
2022/01/15 07:06:24;;;;;;;0.20;0.10;;;2.80;99.90;;;;;;25584627;23;20339;-74
2022/01/15 07:16:28;;;;;;;0.20;0.10;;;2.60;99.90;;;;;;25585421;23;20170;-76
2022/01/15 07:26:34;;;;;;;0.20;0.00;;;2.50;99.90;;;;;;25585828;23;20190;-75
2022/01/15 07:36:38;;;;;;;0.20;0.10;;;2.40;99.90;;;;;;25584493;23;20226;-75
2022/01/15 07:46:43;;;;;;;0.20;0.10;;;2.60;99.90;;;;;;25587618;23;20268;-76
2022/01/15 07:56:47;;;;;;;0.20;0.10;;;2.90;99.90;;;;;;25582791;23;20213;-75
2022/01/15 08:06:52;;;;;;;0.20;0.10;;;3.30;99.90;;;;;;25583708;23;20281;-75
2022/01/15 08:16:56;;;;;;;0.20;0.10;;;3.60;99.90;;;;;;25612950;23;20173;-73
2022/01/15 08:27:02;;;;;;;0.20;0.10;;;4.00;99.90;;;;;;25605432;23;20218;-73
2022/01/15 08:37:06;;;;;;;0.20;0.10;;;5.00;99.90;;;;;;25584764;23;20225;-75
2022/01/15 08:47:12;;;;;;;0.20;0.10;;;5.80;99.90;;;;;;25581599;23;20681;-67
2022/01/15 08:57:16;;;;;;;0.20;0.10;;;6.10;99.90;;;;;;25581647;23;20170;-67
2022/01/15 09:07:21;;;;;;;0.20;0.10;;;6.90;99.90;;;;;;25578831;23;20586;-74
2022/01/15 09:17:26;;;;;;;0.43;0.43;;;7.60;99.90;;;;;;25581931;23;20232;-75
2022/01/15 09:37:53;;;;;;;0.20;0.17;;;8.50;99.90;;;;;;25579316;23;20569;-75
2022/01/15 09:48:00;;;;;;;0.20;0.10;;;8.90;99.90;;;;;;25583486;23;20224;-74
2022/01/15 09:58:04;;;;;;;0.20;0.10;;;9.30;99.90;;;;;;25588609;23;20204;-72
2022/01/15 10:08:13;;;;;;;0.20;0.10;;;9.70;99.90;;;;;;25589016;23;20193;-73
2022/01/15 10:18:22;;;;;;;0.20;0.10;;;9.90;99.90;;;;;;25610001;23;20281;-74
2022/01/15 10:28:49;;;;;;;0.20;0.10;;;10.40;99.90;;;;;;25585681;23;20269;-77
2022/01/15 10:38:53;;;;;;;0.20;0.10;;;10.70;99.90;;;;;;25587851;23;20261;-75
2022/01/15 10:48:58;;;;;;;0.20;0.10;;;11.30;99.90;;;;;;25589182;23;20198;-68
2022/01/15 10:59:08;;;;;;;0.20;0.10;;;11.90;99.90;;;;;;25587762;23;20268;-78
2022/01/15 11:09:13;;;;;;;0.67;0.67;;;12.40;99.90;;;;;;25592526;23;20217;-78
2022/01/15 11:19:17;;;;;;;0.33;0.33;;;13.20;99.90;;;;;;25589783;23;20193;-71
2022/01/15 11:29:22;;;;;;;0.20;0.00;;;14.60;99.90;;;;;;25588945;23;20237;-77
2022/01/15 11:39:34;;;;;;;0.20;0.00;;;14.40;99.90;;;;;;25588778;23;20166;-76
2022/01/15 11:49:41;;;;;;;0.20;0.10;;;14.90;99.90;;;;;;25586844;23;20333;-75
2022/01/15 11:59:49;;;;;;;0.20;0.10;;;16.10;99.90;;;;;;25584457;23;20197;-76
2022/01/15 12:09:55;;;;;;;1.57;1.17;;;16.40;99.90;;;;;;25584092;23;20225;-73
2022/01/15 12:20:01;;;;;;;0.20;0.10;;;16.40;99.90;;;;;;25585986;23;20288;-75
2022/01/15 12:30:11;;;;;;;0.20;0.03;;;17.60;99.90;;;;;;25585710;23;20277;-75
2022/01/15 12:40:15;;;;;;;0.20;0.10;;;17.90;99.90;;;;;;25583803;23;20169;-74
2022/01/15 12:50:21;;;;;;;0.20;0.00;;;18.40;99.90;;;;;;25586521;23;20252;-76
2022/01/15 13:10:48;;;;;;;0.40;0.40;;;18.90;99.90;;;;;;25584664;23;20202;-75
2022/01/15 13:20:53;;;;;;;0.20;0.10;;;19.60;99.90;;;;;;25584979;23;20249;-75
2022/01/15 13:30:58;;;;;;;0.20;0.10;;;18.80;99.90;;;;;;25608350;23;20182;-74
2022/01/15 13:41:12;;;;;;;0.30;0.30;;;18.50;99.90;;;;;;25590804;23;20221;-77
2022/01/15 14:01:41;;;;;;;0.93;0.93;;;18.80;99.90;;;;;;25589728;23;20625;-76
2022/01/15 14:11:58;;;;;;;0.20;0.10;;;18.00;99.90;;;;;;25591588;23;20210;-76
2022/01/15 14:22:16;;;;;;;0.20;0.00;;;18.20;99.90;;;;;;25587600;23;20252;-71
2022/01/15 14:32:24;;;;;;;0.20;0.10;;;18.40;99.90;;;;;;25576865;23;20194;-77
2022/01/15 14:42:28;;;;;;;0.20;0.10;;;18.20;99.90;;;;;;25575890;23;20198;-66
2022/01/15 14:52:33;;;;;;;0.20;0.00;;;17.90;99.90;;;;;;25583788;23;20274;-66
2022/01/15 15:02:38;;;;;;;0.60;0.60;;;18.30;99.90;;;;;;25582354;23;20281;-68
2022/01/15 15:12:53;;;;;;;0.20;0.10;;;17.40;99.90;;;;;;25581607;23;20631;-67
2022/01/15 15:22:57;;;;;;;0.20;0.10;;;17.10;99.90;;;;;;25582629;23;20192;-67
2022/01/15 15:33:02;;;;;;;0.20;0.10;;;17.50;99.90;;;;;;25580320;23;20196;-76
2022/01/15 15:43:06;;;;;;;0.20;0.10;;;17.90;99.90;;;;;;25581706;23;20261;-70
2022/01/15 15:53:12;;;;;;;0.20;0.07;;;17.60;99.90;;;;;;25581867;23;20209;-74
2022/01/15 16:03:18;;;;;;;0.20;0.00;;;17.00;99.90;;;;;;25580045;23;20709;-75
2022/01/15 16:13:24;;;;;;;0.20;0.00;;;15.40;99.90;;;;;;25579525;23;20304;-74
2022/01/15 16:23:28;;;;;;;0.20;0.03;;;14.10;99.90;;;;;;25578201;23;20233;-74
2022/01/15 16:33:34;;;;;;;0.20;0.10;;;13.20;99.90;;;;;;25574540;23;20205;-65
2022/01/15 16:43:37;;;;;;;0.20;0.20;;;12.60;99.90;;;;;;25574161;23;20261;-75
2022/01/15 16:53:43;;;;;;;0.30;0.30;;;11.10;99.90;;;;;;25579300;23;20251;-76
2022/01/15 17:03:46;;;;;;;0.20;0.10;;;9.90;99.90;;;;;;25579834;23;20341;-76
2022/01/15 17:13:51;;;;;;;0.60;0.60;;;9.40;99.90;;;;;;25581539;23;20702;-75
2022/01/15 17:23:55;;;;;;;0.20;0.10;;;8.90;99.90;;;;;;25581137;23;20249;-75
2022/01/15 17:34:01;;;;;;;0.20;0.10;;;8.50;99.90;;;;;;25576811;23;20198;-76
2022/01/15 17:44:05;;;;;;;0.27;0.20;;;7.90;99.90;;;;;;25574170;23;20241;-68
2022/01/15 17:54:11;;;;;;;1.90;1.80;;;7.60;99.90;;;;;;25574883;23;20822;-66
2022/01/15 18:04:15;;;;;;;0.20;0.00;;;7.40;99.90;;;;;;25573232;23;20205;-66
2022/01/15 18:14:22;;;;;;;0.20;0.10;;;7.30;99.90;;;;;;25582903;23;20282;-68
2022/01/15 18:24:27;;;;;;;0.20;0.10;;;7.30;99.90;;;;;;25589046;23;20190;-67
2022/01/15 18:34:32;;;;;;;0.20;0.10;;;7.00;99.90;;;;;;25588945;23;20214;-74
2022/01/15 18:44:36;;;;;;;0.20;0.10;;;7.00;99.90;;;;;;25590146;23;20639;-74
2022/01/15 18:54:41;;;;;;;0.20;0.10;;;6.70;99.90;;;;;;25581773;23;20281;-71
2022/01/15 19:04:45;;;;;;;0.20;0.00;;;7.50;99.90;;;;;;25580683;23;20279;-75
2022/01/15 19:14:53;;;;;;;0.20;0.00;;;7.40;99.90;;;;;;25583145;23;20194;-74
2022/01/15 19:24:57;;;;;;;0.20;0.10;;;7.10;99.90;;;;;;25575698;23;20245;-74
2022/01/15 19:35:02;;;;;;;0.20;0.10;;;7.00;99.90;;;;;;25581164;23;20298;-68
2022/01/15 19:45:07;;;;;;;0.20;0.10;;;6.90;99.90;;;;;;25580072;23;20285;-66
2022/01/15 19:55:13;;;;;;;0.20;0.10;;;7.30;99.90;;;;;;25577018;23;20477;-67
2022/01/15 20:05:17;;;;;;;0.20;0.10;;;7.20;99.90;;;;;;25577162;23;20321;-67
2022/01/15 20:15:30;;;;;;;0.20;0.00;;;7.20;99.90;;;;;;25578969;23;20279;-69
2022/01/15 20:25:38;;;;;;;0.20;0.10;;;7.60;99.90;;;;;;25578342;23;20252;-68
2022/01/15 20:35:43;;;;;;;0.20;0.10;;;7.80;99.90;;;;;;25574065;23;20190;-67
2022/01/15 20:45:47;;;;;;;0.30;0.30;;;7.50;99.90;;;;;;25578958;23;20608;-68
2022/01/15 20:55:53;;;;;;;0.20;0.10;;;7.60;99.90;;;;;;25579904;23;20210;-68
2022/01/15 21:05:57;;;;;;;4.73;4.13;;;8.00;99.90;;;;;;25585102;23;20285;-68
2022/01/15 21:16:02;;;;;;;1.50;0.47;;;7.60;99.90;;;;;;25586550;23;20249;-69
2022/01/15 21:26:08;;;;;;;0.20;0.10;;;7.60;99.90;;;;;;25588663;23;20249;-78
2022/01/15 21:36:19;;;;;;;0.20;0.10;;;7.80;99.90;;;;;;25589188;23;20260;-76
2022/01/15 21:46:22;;;;;;;0.20;0.10;;;7.60;99.90;;;;;;25593868;23;20609;-77
2022/01/15 21:56:28;;;;;;;0.20;0.07;;;7.50;99.90;;;;;;25591428;23;20208;-73
2022/01/15 22:06:32;;;;;;;0.20;0.10;;;7.50;99.90;;;;;;25591442;23;20696;-75
2022/01/15 22:16:38;;;;;;;0.20;0.10;;;7.50;99.90;;;;;;25590380;23;20297;-77
2022/01/15 22:26:42;;;;;;;0.20;0.10;;;7.40;99.90;;;;;;25591041;23;20619;-75
2022/01/15 22:36:48;;;;;;;0.20;0.20;;;7.40;99.90;;;;;;25589263;23;20198;-65
2022/01/15 22:46:52;;;;;;;0.20;0.20;;;7.50;99.90;;;;;;25590593;23;20237;-66
2022/01/15 22:56:57;;;;;;;0.20;0.00;;;7.60;99.90;;;;;;25588585;23;20317;-66
2022/01/15 23:07:01;;;;;;;0.20;0.10;;;7.50;99.90;;;;;;25587204;23;20284;-66
2022/01/15 23:17:06;;;;;;;0.20;0.10;;;7.40;99.90;;;;;;25586450;23;20194;-67
2022/01/15 23:27:10;;;;;;;0.20;0.10;;;7.30;99.90;;;;;;25580055;23;20258;-74
2022/01/15 23:37:16;;;;;;;0.20;0.10;;;7.30;99.90;;;;;;25583032;23;20202;-76
2022/01/15 23:47:20;;;;;;;0.20;0.10;;;7.30;99.90;;;;;;25583236;23;20570;-65
2022/01/15 23:57:25;;;;;;;4.27;4.00;;;7.10;99.90;;;;;;25582600;23;20293;-66
